createdAt,value
2022-12-02T00:01:36.924Z,35.65
2022-12-02T00:04:19.453Z,36.63
2022-12-02T00:06:46.436Z,37.60
2022-12-02T00:09:22.701Z,37.80
2022-12-02T00:11:50.182Z,36.33
2022-12-02T00:14:30.989Z,35.97
2022-12-02T00:16:57.876Z,36.30
2022-12-02T00:19:24.710Z,36.25
2022-12-02T00:21:52.321Z,37.72
2022-12-02T00:24:19.956Z,37.22
2022-12-02T00:26:46.995Z,38.15
2022-12-02T00:29:15.118Z,36.28
2022-12-02T00:31:42.050Z,36.25
2022-12-02T00:34:09.187Z,38.28
2022-12-02T00:36:35.951Z,36.88
2022-12-02T00:39:03.679Z,38.95
2022-12-02T00:41:30.471Z,37.70
2022-12-02T00:44:15.489Z,36.63
2022-12-02T00:46:42.199Z,37.50
2022-12-02T00:49:11.504Z,38.55
2022-12-02T00:51:39.499Z,38.83
2022-12-02T00:54:06.988Z,39.35
2022-12-02T00:56:34.124Z,39.83
2022-12-02T00:59:01.429Z,38.08
2022-12-02T01:01:29.163Z,38.40
2022-12-02T01:03:56.389Z,38.28
2022-12-02T01:06:23.774Z,38.53
2022-12-02T01:08:50.903Z,39.45
2022-12-02T01:11:18.163Z,36.55
2022-12-02T01:13:45.304Z,37.03
2022-12-02T01:16:12.566Z,36.60
2022-12-02T01:18:39.344Z,38.95
2022-12-02T01:21:06.212Z,37.60
2022-12-02T01:23:33.010Z,36.70
2022-12-02T01:25:59.772Z,39.33
2022-12-02T01:28:26.684Z,37.15
2022-12-02T01:30:53.412Z,37.35
2022-12-02T01:33:20.177Z,37.78
2022-12-02T01:35:46.928Z,38.55
2022-12-02T01:38:13.854Z,39.38
2022-12-02T01:40:41.182Z,38.72
2022-12-02T01:43:08.077Z,40.53
2022-12-02T01:45:34.973Z,39.70
2022-12-02T01:48:02.716Z,39.63
2022-12-02T01:50:30.346Z,38.75
2022-12-02T01:52:58.620Z,37.75
2022-12-02T01:55:27.786Z,37.30
2022-12-02T01:57:55.622Z,39.67
2022-12-02T02:00:22.688Z,39.65
2022-12-02T02:02:49.543Z,39.80
2022-12-02T02:05:20.258Z,40.72
2022-12-02T02:07:55.589Z,39.17
2022-12-02T02:10:23.803Z,40.08
2022-12-02T02:12:52.144Z,39.38
2022-12-02T02:15:19.733Z,39.10
2022-12-02T02:17:47.030Z,39.35
2022-12-02T02:20:17.613Z,39.63
2022-12-02T02:23:06.940Z,38.65
2022-12-02T02:25:43.427Z,40.95
2022-12-02T02:28:10.378Z,38.72
2022-12-02T02:30:37.705Z,38.28
2022-12-02T02:33:06.982Z,37.70
2022-12-02T02:35:35.920Z,38.90
2022-12-02T02:38:03.490Z,37.13
2022-12-02T02:40:30.477Z,40.63
2022-12-02T02:43:01.165Z,36.53
2022-12-02T02:45:31.251Z,39.17
2022-12-02T02:47:58.391Z,37.42
2022-12-02T02:50:26.212Z,38.78
2022-12-02T02:52:53.604Z,39.03
2022-12-02T02:55:23.785Z,39.15
2022-12-02T02:57:51.229Z,37.72
2022-12-02T03:00:20.098Z,41.50
2022-12-02T03:02:51.045Z,38.45
2022-12-02T03:05:19.342Z,37.50
2022-12-02T03:07:46.614Z,37.60
2022-12-02T03:10:13.860Z,37.47
2022-12-02T03:12:40.903Z,37.50
2022-12-02T03:15:09.109Z,37.72
2022-12-02T03:17:36.766Z,35.53
2022-12-02T03:20:04.291Z,36.25
2022-12-02T03:22:31.357Z,35.90
2022-12-02T03:24:58.283Z,37.53
2022-12-02T03:27:25.586Z,36.03
2022-12-02T03:29:52.515Z,34.88
2022-12-02T03:32:19.527Z,32.92
2022-12-02T03:34:46.487Z,34.45
2022-12-02T03:37:13.421Z,32.85
2022-12-02T03:39:40.179Z,33.60
2022-12-02T03:42:07.320Z,34.13
2022-12-02T03:44:34.150Z,33.65
2022-12-02T03:47:02.324Z,31.77
2022-12-02T03:49:29.840Z,31.17
2022-12-02T03:51:57.447Z,32.17
2022-12-02T03:54:24.239Z,32.33
2022-12-02T03:56:54.090Z,31.50
2022-12-02T03:59:27.924Z,31.80
2022-12-02T04:01:55.710Z,22.83
2022-12-02T04:04:22.600Z,32.75
2022-12-02T04:06:49.366Z,30.85
2022-12-02T04:09:16.220Z,31.83
2022-12-02T04:11:43.039Z,29.65
2022-12-02T04:14:09.826Z,30.17
2022-12-02T04:16:36.736Z,30.88
2022-12-02T04:19:03.555Z,31.65
2022-12-02T04:21:30.351Z,29.95
2022-12-02T04:23:57.104Z,32.15
2022-12-02T04:26:23.829Z,29.98
2022-12-02T04:28:50.596Z,32.17
2022-12-02T04:31:17.483Z,32.42
2022-12-02T04:33:44.289Z,32.63
2022-12-02T04:36:10.990Z,32.58
2022-12-02T04:38:37.837Z,31.50
2022-12-02T04:41:04.714Z,32.78
2022-12-02T04:43:31.476Z,31.00
2022-12-02T04:45:58.193Z,32.47
2022-12-02T04:48:24.926Z,31.20
2022-12-02T04:50:51.708Z,31.40
2022-12-02T04:53:18.532Z,34.40
2022-12-02T04:55:46.825Z,35.25
2022-12-02T04:58:14.212Z,34.63
2022-12-02T05:00:41.006Z,35.17
2022-12-02T05:03:07.962Z,34.33
2022-12-02T05:05:34.888Z,33.55
2022-12-02T05:08:01.671Z,34.03
2022-12-02T05:10:28.405Z,35.30
2022-12-02T05:12:55.297Z,35.45
2022-12-02T05:15:22.114Z,34.22
2022-12-02T05:17:49.163Z,35.72
2022-12-02T05:20:15.934Z,34.90
2022-12-02T05:22:42.720Z,37.50
2022-12-02T05:25:09.923Z,35.28
2022-12-02T05:27:36.790Z,38.50
2022-12-02T05:30:07.606Z,37.78
2022-12-02T05:32:34.657Z,36.47
2022-12-02T05:35:01.468Z,35.85
2022-12-02T05:37:28.274Z,37.13
2022-12-02T05:39:55.126Z,36.08
2022-12-02T05:42:21.917Z,38.78
2022-12-02T05:44:48.693Z,36.63
2022-12-02T05:47:18.822Z,35.53
2022-12-02T05:49:46.953Z,36.63
2022-12-02T05:52:22.286Z,38.40
2022-12-02T05:54:52.121Z,37.70
2022-12-02T05:57:27.664Z,37.72
2022-12-02T06:00:17.367Z,36.08
2022-12-02T06:03:00.918Z,38.20
2022-12-02T06:05:29.327Z,38.10
2022-12-02T06:08:16.724Z,36.42
2022-12-02T06:10:49.048Z,36.13
2022-12-02T06:13:21.559Z,37.08
2022-12-02T06:15:49.481Z,35.75
2022-12-02T06:18:22.448Z,39.75
2022-12-02T06:20:55.824Z,37.17
2022-12-02T06:23:23.315Z,39.03
2022-12-02T06:25:52.327Z,41.90
2022-12-02T06:28:34.817Z,37.85
2022-12-02T06:31:13.944Z,39.97
2022-12-02T06:33:41.106Z,39.67
2022-12-02T06:36:18.162Z,40.72
2022-12-02T06:38:51.580Z,40.65
2022-12-02T06:41:24.420Z,39.30
2022-12-02T06:44:10.303Z,42.90
2022-12-02T06:46:37.898Z,41.67
2022-12-02T06:49:21.456Z,42.90
2022-12-02T06:52:01.163Z,42.38
2022-12-02T06:54:30.564Z,42.88
2022-12-02T06:57:01.135Z,42.25
2022-12-02T06:59:28.318Z,41.65
2022-12-02T07:01:58.258Z,43.03
2022-12-02T07:04:49.560Z,43.35
2022-12-02T07:07:27.590Z,41.83
2022-12-02T07:10:00.658Z,46.85
2022-12-02T07:12:36.792Z,43.83
2022-12-02T07:15:17.012Z,42.78
2022-12-02T07:17:44.604Z,43.75
2022-12-02T07:20:33.693Z,44.75
2022-12-02T07:23:19.136Z,41.72
2022-12-02T07:25:55.277Z,43.72
2022-12-02T07:28:35.963Z,44.65
2022-12-02T07:31:03.181Z,43.35
2022-12-02T07:33:30.744Z,42.80
2022-12-02T07:35:57.580Z,43.78
2022-12-02T07:38:49.996Z,42.72
2022-12-02T07:41:11.326Z,42.85
2022-12-02T07:43:38.083Z,43.10
2022-12-02T07:46:05.040Z,40.75
2022-12-02T07:48:32.122Z,45.20
2022-12-02T07:50:58.886Z,41.95
2022-12-02T07:53:25.623Z,43.78
2022-12-02T07:55:55.960Z,43.38
2022-12-02T07:58:29.002Z,42.40
2022-12-02T08:01:09.237Z,41.25
2022-12-02T08:03:37.365Z,42.72
2022-12-02T08:06:04.246Z,42.65
2022-12-02T08:08:31.013Z,44.25
2022-12-02T08:10:57.825Z,42.15
2022-12-02T08:13:24.624Z,44.20
2022-12-02T08:15:54.171Z,41.22
2022-12-02T08:18:21.367Z,41.72
2022-12-02T08:20:48.077Z,45.28
2022-12-02T08:23:14.853Z,45.10
2022-12-02T08:25:41.589Z,43.40
2022-12-02T08:28:08.634Z,43.30
2022-12-02T08:30:35.471Z,43.97
2022-12-02T08:33:02.278Z,46.03
2022-12-02T08:35:29.038Z,43.40
2022-12-02T08:37:55.800Z,43.08
2022-12-02T08:40:22.633Z,44.92
2022-12-02T08:42:49.393Z,42.20
2022-12-02T08:45:16.249Z,45.17
2022-12-02T08:47:42.997Z,41.78
2022-12-02T08:50:10.549Z,46.22
2022-12-02T08:52:37.506Z,43.85
2022-12-02T08:55:04.500Z,43.47
2022-12-02T08:57:31.251Z,44.97
2022-12-02T08:59:58.010Z,44.90
2022-12-02T09:02:24.845Z,42.72
2022-12-02T09:04:52.205Z,43.40
2022-12-02T09:07:19.762Z,43.88
2022-12-02T09:09:46.558Z,43.03
2022-12-02T09:12:13.553Z,45.53
2022-12-02T09:14:40.293Z,43.17
2022-12-02T09:17:07.059Z,42.00
2022-12-02T09:19:34.019Z,46.38
2022-12-02T09:22:00.872Z,42.40
2022-12-02T09:24:27.709Z,44.05
2022-12-02T09:26:54.468Z,44.15
2022-12-02T09:29:21.251Z,43.65
2022-12-02T09:31:48.000Z,44.75
2022-12-02T09:34:14.726Z,46.63
2022-12-02T09:36:41.531Z,45.10
2022-12-02T09:39:08.309Z,44.80
2022-12-02T09:41:35.175Z,43.92
2022-12-02T09:44:02.220Z,42.78
2022-12-02T09:46:29.367Z,44.22
2022-12-02T09:48:56.314Z,42.42
2022-12-02T09:51:23.361Z,42.70
2022-12-02T09:53:50.300Z,44.33
2022-12-02T09:56:20.039Z,41.70
2022-12-02T09:58:49.978Z,40.15
2022-12-02T10:01:17.227Z,38.70
2022-12-02T10:03:45.537Z,41.05
2022-12-02T10:06:26.790Z,40.92
2022-12-02T10:08:55.832Z,39.53
2022-12-02T10:11:29.599Z,39.58
2022-12-02T10:13:57.401Z,38.78
2022-12-02T10:16:26.365Z,40.75
2022-12-02T10:19:02.114Z,41.15
2022-12-02T10:21:29.342Z,41.13
2022-12-02T10:24:03.628Z,41.38
2022-12-02T10:26:47.026Z,30.40
2022-12-02T10:29:25.794Z,40.13
2022-12-02T10:31:59.875Z,39.25
2022-12-02T10:34:28.851Z,39.27
2022-12-02T10:36:56.191Z,39.95
2022-12-02T10:39:34.429Z,39.70
2022-12-02T10:42:04.521Z,40.53
2022-12-02T10:44:33.646Z,41.47
2022-12-02T10:47:25.380Z,40.10
2022-12-02T10:49:53.616Z,39.58
2022-12-02T10:52:59.080Z,41.10
2022-12-02T10:55:27.646Z,43.47
2022-12-02T10:57:55.907Z,40.35
2022-12-02T11:00:26.960Z,38.72
2022-12-02T11:03:00.375Z,39.65
2022-12-02T11:05:32.654Z,38.53
2022-12-02T11:08:00.993Z,38.25
2022-12-02T11:10:35.056Z,38.75
2022-12-02T11:13:27.966Z,31.67
2022-12-02T11:15:54.821Z,40.88
2022-12-02T11:18:30.744Z,39.75
2022-12-02T11:21:06.851Z,38.13
2022-12-02T11:23:34.760Z,36.78
2022-12-02T11:26:10.197Z,37.17
2022-12-02T11:28:48.793Z,39.20
2022-12-02T11:31:18.707Z,38.17
2022-12-02T11:33:53.056Z,37.88
2022-12-02T11:36:24.517Z,39.67
2022-12-02T11:38:51.183Z,38.85
2022-12-02T11:41:18.656Z,35.95
2022-12-02T11:43:48.070Z,35.67
2022-12-02T11:46:20.290Z,37.72
2022-12-02T11:48:53.615Z,37.05
2022-12-02T11:51:38.903Z,37.15
2022-12-02T11:56:39.270Z,33.85
2022-12-02T11:59:19.585Z,36.67
2022-12-02T12:01:46.609Z,34.20
2022-12-02T12:04:24.947Z,35.65
2022-12-02T12:07:00.036Z,34.10
2022-12-02T12:09:28.473Z,34.45
2022-12-02T12:12:16.806Z,35.33
2022-12-02T12:14:59.016Z,35.00
2022-12-02T12:17:40.665Z,36.33
2022-12-02T12:20:13.647Z,33.58
2022-12-02T12:22:41.520Z,35.22
2022-12-02T12:25:30.439Z,36.30
2022-12-02T12:27:57.850Z,36.30
2022-12-02T12:30:24.955Z,33.75
2022-12-02T12:32:51.989Z,34.83
2022-12-02T12:35:18.829Z,35.75
2022-12-02T12:37:45.680Z,35.28
2022-12-02T12:40:13.355Z,36.63
2022-12-02T12:42:40.097Z,34.17
2022-12-02T12:45:07.178Z,37.67
2022-12-02T12:47:33.877Z,35.20
2022-12-02T12:50:00.663Z,36.10
2022-12-02T12:52:27.544Z,36.17
2022-12-02T12:54:54.590Z,34.97
2022-12-02T12:57:21.501Z,35.42
2022-12-02T12:59:48.283Z,33.42
2022-12-02T13:02:15.166Z,34.05
2022-12-02T13:04:42.124Z,34.13
2022-12-02T13:07:08.882Z,32.70
2022-12-02T13:09:35.733Z,32.88
2022-12-02T13:12:02.483Z,33.50
2022-12-02T13:14:29.249Z,32.28
2022-12-02T13:16:56.041Z,33.05
2022-12-02T13:19:22.899Z,33.70
2022-12-02T13:21:49.762Z,30.80
2022-12-02T13:24:16.604Z,29.75
2022-12-02T13:26:43.391Z,30.40
2022-12-02T13:29:12.870Z,30.10
2022-12-02T13:31:39.735Z,30.65
2022-12-02T13:34:06.514Z,28.92
2022-12-02T13:36:33.331Z,28.77
2022-12-02T13:39:05.998Z,29.13
2022-12-02T13:41:33.397Z,28.20
2022-12-02T13:44:00.183Z,29.45
2022-12-02T13:46:27.009Z,28.30
2022-12-02T13:48:53.818Z,27.80
2022-12-02T13:51:20.676Z,28.50
2022-12-02T13:53:47.509Z,28.10
2022-12-02T13:56:14.422Z,28.10
2022-12-02T13:58:41.485Z,27.73
2022-12-02T14:01:08.425Z,27.30
2022-12-02T14:03:35.403Z,26.08
2022-12-02T14:06:02.187Z,27.27
2022-12-02T14:08:28.996Z,26.73
2022-12-02T14:10:55.822Z,25.52
2022-12-02T14:13:22.747Z,24.83
2022-12-02T14:15:49.740Z,24.13
2022-12-02T14:18:16.635Z,25.15
2022-12-02T14:20:43.723Z,25.67
2022-12-02T14:23:13.639Z,26.60
2022-12-02T14:25:40.640Z,26.42
2022-12-02T14:28:07.958Z,26.75
2022-12-02T14:30:35.261Z,25.80
2022-12-02T14:33:02.129Z,26.52
2022-12-02T14:35:28.979Z,27.70
2022-12-02T14:37:55.829Z,26.80
2022-12-02T14:40:23.793Z,26.13
2022-12-02T14:42:50.551Z,26.42
2022-12-02T14:45:17.415Z,26.33
2022-12-02T14:47:44.190Z,26.20
2022-12-02T14:50:11.171Z,26.83
2022-12-02T14:52:37.927Z,26.55
2022-12-02T14:55:05.000Z,24.85
2022-12-02T14:57:31.787Z,25.40
2022-12-02T14:59:58.613Z,27.08
2022-12-02T15:02:25.504Z,28.98
2022-12-02T15:04:52.623Z,26.58
2022-12-02T15:07:19.528Z,27.27
2022-12-02T15:09:46.277Z,26.38
2022-12-02T15:12:13.110Z,26.45
2022-12-02T15:14:39.981Z,24.95
2022-12-02T15:17:06.828Z,25.30
2022-12-02T15:19:33.689Z,26.02
2022-12-02T15:22:00.503Z,29.08
2022-12-02T15:24:27.259Z,27.73
2022-12-02T15:26:56.175Z,39.38
2022-12-02T15:29:23.830Z,26.27
2022-12-02T15:31:51.141Z,28.23
2022-12-02T15:34:18.182Z,27.27
2022-12-02T15:36:45.001Z,26.90
2022-12-02T15:39:11.921Z,25.17
2022-12-02T15:41:38.763Z,26.75
2022-12-02T15:44:06.068Z,24.95
2022-12-02T15:46:33.073Z,24.25
2022-12-02T15:49:00.010Z,25.88
2022-12-02T15:51:26.813Z,24.63
2022-12-02T15:53:53.565Z,24.92
2022-12-02T15:56:20.513Z,26.30
2022-12-02T15:58:49.667Z,24.90
2022-12-02T16:01:16.703Z,24.17
2022-12-02T16:03:43.940Z,26.33
2022-12-02T16:06:10.826Z,24.58
2022-12-02T16:08:37.746Z,25.15
2022-12-02T16:11:04.825Z,24.75
2022-12-02T16:13:32.002Z,26.48
2022-12-02T16:15:58.810Z,24.80
2022-12-02T16:18:26.966Z,26.20
2022-12-02T16:20:55.984Z,24.27
2022-12-02T16:23:23.462Z,25.73
2022-12-02T16:25:50.462Z,25.90
2022-12-02T16:28:17.356Z,26.05
2022-12-02T16:30:44.113Z,23.88
2022-12-02T16:33:11.026Z,25.15
2022-12-02T16:35:37.961Z,26.45
2022-12-02T16:38:05.237Z,26.05
2022-12-02T16:40:32.115Z,25.23
2022-12-02T16:42:58.956Z,29.30
2022-12-02T16:45:26.008Z,30.65
2022-12-02T16:47:52.879Z,31.05
2022-12-02T16:50:19.659Z,27.30
2022-12-02T16:52:46.772Z,28.17
2022-12-02T16:55:13.795Z,26.60
2022-12-02T16:57:40.578Z,26.98
2022-12-02T17:00:09.062Z,27.15
2022-12-02T17:02:36.054Z,27.13
2022-12-02T17:05:03.607Z,28.38
2022-12-02T17:07:30.457Z,26.73
2022-12-02T17:09:57.363Z,26.65
2022-12-02T17:12:24.372Z,27.88
2022-12-02T17:14:54.978Z,28.08
2022-12-02T17:17:44.162Z,26.02
2022-12-02T17:20:09.634Z,27.73
2022-12-02T17:22:36.398Z,26.65
2022-12-02T17:25:03.385Z,28.70
2022-12-02T17:27:30.173Z,27.35
2022-12-02T17:29:56.956Z,28.42
2022-12-02T17:32:23.883Z,28.00
2022-12-02T17:34:51.007Z,27.40
2022-12-02T17:37:18.132Z,27.73
2022-12-02T17:39:44.889Z,27.00
2022-12-02T17:42:11.818Z,26.83
2022-12-02T17:44:38.600Z,27.83
2022-12-02T17:47:05.397Z,26.00
2022-12-02T17:49:34.417Z,26.55
2022-12-02T17:52:19.182Z,26.63
2022-12-02T17:57:13.654Z,27.73
2022-12-02T17:59:40.826Z,27.25
2022-12-02T18:02:09.823Z,26.40
2022-12-02T18:04:36.909Z,27.85
2022-12-02T18:07:09.547Z,26.65
2022-12-02T18:09:37.583Z,25.77
2022-12-02T18:12:05.185Z,26.50
2022-12-02T18:14:31.975Z,27.55
2022-12-02T18:16:58.875Z,26.45
2022-12-02T18:19:25.713Z,27.25
2022-12-02T18:21:52.454Z,27.27
2022-12-02T18:24:19.489Z,25.17
2022-12-02T18:26:46.288Z,28.38
2022-12-02T18:29:13.089Z,27.67
2022-12-02T18:31:39.885Z,28.10
2022-12-02T18:34:06.679Z,27.30
2022-12-02T18:36:33.504Z,26.70
2022-12-02T18:39:00.300Z,26.33
2022-12-02T18:41:27.139Z,27.02
2022-12-02T18:43:53.887Z,26.33
2022-12-02T18:46:20.780Z,25.50
2022-12-02T18:48:47.753Z,25.98
2022-12-02T18:51:14.507Z,27.35
2022-12-02T18:53:41.338Z,26.52
2022-12-02T18:56:08.208Z,26.65
2022-12-02T18:58:34.961Z,29.98
2022-12-02T19:01:01.877Z,27.83
2022-12-02T19:03:28.771Z,26.02
2022-12-02T19:05:55.672Z,26.92
2022-12-02T19:08:22.592Z,27.27
2022-12-02T19:10:51.852Z,26.00
2022-12-02T19:13:18.799Z,26.60
2022-12-02T19:15:46.026Z,26.73
2022-12-02T19:18:13.748Z,27.60
2022-12-02T19:20:40.724Z,28.02
2022-12-02T19:23:07.679Z,26.58
2022-12-02T19:25:37.689Z,26.85
2022-12-02T19:30:36.249Z,25.27
2022-12-02T19:33:03.121Z,26.05
2022-12-02T19:35:30.045Z,25.23
2022-12-02T19:38:03.719Z,25.27
2022-12-02T19:40:38.047Z,28.40
2022-12-02T19:43:09.495Z,26.73
2022-12-02T19:45:36.490Z,25.98
2022-12-02T19:48:03.418Z,26.30
2022-12-02T19:50:30.236Z,26.05
2022-12-02T19:52:57.162Z,26.27
2022-12-02T19:55:23.955Z,25.90
2022-12-02T19:57:50.789Z,25.35
2022-12-02T20:00:18.721Z,27.13
2022-12-02T20:02:46.108Z,26.23
2022-12-02T20:05:15.871Z,26.30
2022-12-02T20:07:43.045Z,26.38
2022-12-02T20:10:11.468Z,24.83
2022-12-02T20:12:38.506Z,27.10
2022-12-02T20:15:06.505Z,25.50
2022-12-02T20:17:33.531Z,27.17
2022-12-02T20:20:02.365Z,25.58
2022-12-02T20:22:29.303Z,25.38
2022-12-02T20:24:56.172Z,25.77
2022-12-02T20:27:23.446Z,26.23
2022-12-02T20:29:50.877Z,25.17
2022-12-02T20:32:18.909Z,26.88
2022-12-02T20:34:48.262Z,25.52
2022-12-02T20:37:15.118Z,25.70
2022-12-02T20:39:42.985Z,27.65
2022-12-02T20:42:10.379Z,26.95
2022-12-02T20:44:37.360Z,26.23
2022-12-02T20:47:04.437Z,26.33
2022-12-02T20:49:31.337Z,27.33
2022-12-02T20:51:58.322Z,26.58
2022-12-02T20:54:26.030Z,26.48
2022-12-02T20:56:52.916Z,25.88
2022-12-02T20:59:19.699Z,26.45
2022-12-02T21:01:46.549Z,25.38
2022-12-02T21:04:13.426Z,27.67
2022-12-02T21:06:40.260Z,26.45
2022-12-02T21:09:07.203Z,26.75
2022-12-02T21:11:34.053Z,26.67
2022-12-02T21:14:00.780Z,25.88
2022-12-02T21:16:27.592Z,26.25
2022-12-02T21:18:54.441Z,26.92
2022-12-02T21:21:21.229Z,25.02
2022-12-02T21:23:48.027Z,27.20
2022-12-02T21:26:14.899Z,26.60
2022-12-02T21:28:41.651Z,27.38
2022-12-02T21:31:08.456Z,25.15
2022-12-02T21:33:35.404Z,27.13
2022-12-02T21:36:02.245Z,26.67
2022-12-02T21:38:30.743Z,25.58
2022-12-02T21:40:57.614Z,25.63
2022-12-02T21:43:25.214Z,29.10
2022-12-02T21:45:52.172Z,27.80
2022-12-02T21:48:19.086Z,31.08
2022-12-02T21:50:45.823Z,29.73
2022-12-02T21:53:12.588Z,26.88
2022-12-02T21:55:39.450Z,27.35
2022-12-02T21:58:06.234Z,25.77
2022-12-02T22:00:33.107Z,26.77
2022-12-02T22:03:00.023Z,26.05
2022-12-02T22:05:26.938Z,26.52
2022-12-02T22:07:53.885Z,27.42
2022-12-02T22:10:26.813Z,26.15
2022-12-02T22:12:53.540Z,25.95
2022-12-02T22:15:22.068Z,25.45
2022-12-02T22:17:49.075Z,26.20
2022-12-02T22:20:17.954Z,24.75
2022-12-02T22:22:44.873Z,24.95
2022-12-02T22:25:11.802Z,25.00
2022-12-02T22:27:38.903Z,23.25
2022-12-02T22:30:07.058Z,24.27
2022-12-02T22:32:35.281Z,24.10
2022-12-02T22:35:02.911Z,23.80
2022-12-02T22:37:29.783Z,24.48
2022-12-02T22:39:56.568Z,24.83
2022-12-02T22:42:24.030Z,24.50
2022-12-02T22:44:51.767Z,23.77
2022-12-02T22:47:18.877Z,25.05
2022-12-02T22:49:45.747Z,24.83
2022-12-02T22:52:12.561Z,23.20
2022-12-02T22:54:39.448Z,24.50
2022-12-02T22:57:06.217Z,23.65
2022-12-02T22:59:33.402Z,24.75
2022-12-02T23:02:00.231Z,23.58
2022-12-02T23:04:27.039Z,23.95
2022-12-02T23:06:53.890Z,20.67
2022-12-02T23:09:20.669Z,22.17
2022-12-02T23:11:47.424Z,23.63
2022-12-02T23:14:14.247Z,22.38
2022-12-02T23:16:41.112Z,21.52
2022-12-02T23:19:07.896Z,22.55
2022-12-02T23:21:34.920Z,21.13
2022-12-02T23:24:01.661Z,21.75
2022-12-02T23:26:28.445Z,22.40
2022-12-02T23:28:55.217Z,22.27
2022-12-02T23:31:22.139Z,21.70
2022-12-02T23:33:48.970Z,23.35
2022-12-02T23:36:15.853Z,23.58
2022-12-02T23:38:42.663Z,21.85
2022-12-02T23:41:09.449Z,22.48
2022-12-02T23:43:36.311Z,22.88
2022-12-02T23:46:04.109Z,23.55
2022-12-02T23:48:30.946Z,24.50
2022-12-02T23:50:57.728Z,23.88
2022-12-02T23:53:24.447Z,22.98
2022-12-02T23:55:52.117Z,25.02
2022-12-02T23:58:18.848Z,24.10
